createdAt,value
2018-04-22T00:01:37.357Z,17.97
2018-04-22T00:04:05.117Z,18.07
2018-04-22T00:06:32.877Z,18.20
2018-04-22T00:09:00.641Z,18.43
2018-04-22T00:11:28.193Z,18.73
2018-04-22T00:13:55.664Z,18.63
2018-04-22T00:16:23.432Z,18.67
2018-04-22T00:18:51.195Z,18.77
2018-04-22T00:21:19.365Z,17.63
2018-04-22T00:23:46.928Z,18.03
2018-04-22T00:26:14.589Z,17.90
2018-04-22T00:28:42.355Z,16.80
2018-04-22T00:31:10.329Z,18.33
2018-04-22T00:33:38.712Z,17.97
2018-04-22T00:36:06.580Z,18.27
2018-04-22T00:38:34.344Z,18.87
2018-04-22T00:41:02.108Z,18.07
2018-04-22T00:43:30.092Z,17.90
2018-04-22T00:45:58.324Z,19.27
2018-04-22T00:48:26.013Z,19.50
2018-04-22T00:50:53.497Z,19.97
2018-04-22T00:53:22.068Z,19.93
2018-04-22T00:55:49.833Z,18.10
2018-04-22T00:58:17.492Z,17.83
2018-04-22T01:00:45.873Z,19.23
2018-04-22T01:03:13.644Z,19.33
2018-04-22T01:05:42.121Z,18.83
2018-04-22T01:08:09.886Z,19.13
2018-04-22T01:10:37.648Z,19.27
2018-04-22T01:13:05.924Z,20.07
2018-04-22T01:15:34.160Z,20.80
2018-04-22T01:18:01.780Z,20.87
2018-04-22T01:20:30.761Z,20.23
2018-04-22T01:22:58.524Z,21.40
2018-04-22T01:25:26.291Z,20.63
2018-04-22T01:27:55.591Z,20.17
2018-04-22T01:30:23.876Z,19.77
2018-04-22T01:32:51.984Z,19.23
2018-04-22T01:35:19.717Z,21.10
2018-04-22T01:37:47.473Z,20.20
2018-04-22T01:40:15.096Z,18.93
2018-04-22T01:42:42.699Z,19.93
2018-04-22T01:45:10.364Z,19.37
2018-04-22T01:47:38.340Z,18.80
2018-04-22T01:50:05.996Z,20.20
2018-04-22T01:52:33.472Z,21.07
2018-04-22T01:55:01.945Z,21.20
2018-04-22T01:57:29.602Z,22.10
2018-04-22T01:59:57.369Z,21.07
2018-04-22T02:02:24.848Z,21.47
2018-04-22T02:04:53.815Z,21.53
2018-04-22T02:07:21.385Z,21.33
2018-04-22T02:09:49.709Z,22.03
2018-04-22T02:12:17.520Z,21.73
2018-04-22T02:14:45.005Z,20.97
2018-04-22T02:17:13.369Z,20.83
2018-04-22T02:19:41.129Z,22.50
2018-04-22T02:22:09.103Z,21.90
2018-04-22T02:24:36.966Z,21.70
2018-04-22T02:27:04.729Z,22.27
2018-04-22T02:29:32.392Z,22.17
2018-04-22T02:32:00.056Z,23.73
2018-04-22T02:34:27.778Z,23.33
2018-04-22T02:36:56.104Z,22.93
2018-04-22T02:39:23.664Z,22.53
2018-04-22T02:41:51.249Z,25.27
2018-04-22T02:44:18.989Z,24.57
2018-04-22T02:46:46.657Z,24.53
2018-04-22T02:49:15.029Z,22.63
2018-04-22T02:51:42.900Z,23.40
2018-04-22T02:54:10.480Z,23.33
2018-04-22T02:56:39.040Z,23.47
2018-04-22T02:59:06.704Z,23.20
2018-04-22T03:01:34.469Z,21.43
2018-04-22T03:04:02.343Z,21.60
2018-04-22T03:06:31.537Z,22.63
2018-04-22T03:08:59.297Z,23.53
2018-04-22T03:11:27.069Z,21.67
2018-04-22T03:13:55.136Z,22.97
2018-04-22T03:16:22.804Z,24.30
2018-04-22T03:18:50.567Z,23.37
2018-04-22T03:21:18.438Z,25.20
2018-04-22T03:23:46.016Z,25.13
2018-04-22T03:26:14.480Z,24.47
2018-04-22T03:28:42.448Z,24.93
2018-04-22T03:31:10.240Z,25.00
2018-04-22T03:33:38.796Z,25.60
2018-04-22T03:36:06.460Z,26.03
2018-04-22T03:38:34.332Z,23.80
2018-04-22T03:41:02.205Z,24.77
2018-04-22T03:43:30.472Z,25.40
2018-04-22T03:45:58.236Z,25.13
2018-04-22T03:48:26.192Z,25.73
2018-04-22T03:50:53.808Z,24.07
2018-04-22T03:53:21.436Z,25.47
2018-04-22T03:55:50.129Z,24.77
2018-04-22T03:58:18.700Z,24.23
2018-04-22T04:00:46.268Z,22.90
2018-04-22T04:03:13.824Z,24.43
2018-04-22T04:05:41.903Z,24.17
2018-04-22T04:08:10.176Z,25.50
2018-04-22T04:10:37.944Z,24.00
2018-04-22T04:13:05.713Z,26.20
2018-04-22T04:15:33.473Z,26.77
2018-04-22T04:21:28.403Z,27.87
2018-04-22T04:27:23.931Z,25.70
2018-04-22T04:29:51.668Z,24.70
2018-04-22T04:32:19.356Z,23.93
2018-04-22T04:34:47.222Z,25.17
2018-04-22T04:37:15.512Z,28.70
2018-04-22T04:39:43.747Z,26.93
2018-04-22T04:42:11.439Z,26.13
2018-04-22T04:44:38.909Z,27.37
2018-04-22T04:47:07.144Z,26.23
2018-04-22T04:49:34.691Z,28.73
2018-04-22T04:52:02.297Z,27.40
2018-04-22T04:54:29.771Z,27.30
2018-04-22T04:56:58.037Z,26.83
2018-04-22T04:59:25.906Z,28.20
2018-04-22T05:01:53.380Z,26.20
2018-04-22T05:04:21.615Z,28.43
2018-04-22T05:06:49.112Z,29.33
2018-04-22T05:09:18.180Z,28.37
2018-04-22T05:11:45.652Z,28.37
2018-04-22T05:14:13.231Z,29.77
2018-04-22T05:16:41.896Z,30.63
2018-04-22T05:19:09.474Z,31.00
2018-04-22T05:21:37.736Z,30.83
2018-04-22T05:24:05.348Z,28.73
2018-04-22T05:26:32.819Z,25.60
2018-04-22T05:29:00.517Z,25.97
2018-04-22T05:31:28.279Z,21.97
2018-04-22T05:33:56.056Z,22.47
2018-04-22T05:36:24.965Z,22.73
2018-04-22T05:38:52.600Z,23.13
2018-04-22T05:41:20.504Z,21.70
2018-04-22T05:43:47.977Z,21.70
2018-04-22T05:46:15.486Z,22.43
2018-04-22T05:48:43.148Z,24.97
2018-04-22T05:51:10.580Z,23.83
2018-04-22T05:53:38.365Z,21.90
2018-04-22T05:56:05.854Z,23.00
2018-04-22T05:58:33.336Z,23.50
2018-04-22T06:01:00.956Z,23.90
2018-04-22T06:03:29.222Z,22.90
2018-04-22T06:05:56.692Z,23.97
2018-04-22T06:08:24.984Z,22.90
2018-04-22T06:10:53.900Z,22.77
2018-04-22T06:13:21.368Z,23.33
2018-04-22T06:15:49.292Z,23.93
2018-04-22T06:18:17.652Z,24.13
2018-04-22T06:20:45.416Z,25.33
2018-04-22T06:23:14.671Z,25.43
2018-04-22T06:25:42.173Z,24.07
2018-04-22T06:28:11.152Z,22.97
2018-04-22T06:30:38.733Z,24.10
2018-04-22T06:33:06.796Z,23.80
2018-04-22T06:35:34.564Z,22.90
2018-04-22T06:38:02.332Z,24.63
2018-04-22T06:40:30.848Z,24.63
2018-04-22T06:42:59.491Z,23.67
2018-04-22T06:45:27.062Z,22.37
2018-04-22T06:47:54.825Z,23.83
2018-04-22T06:50:23.101Z,22.47
2018-04-22T06:52:50.604Z,22.50
2018-04-22T06:55:18.078Z,24.10
2018-04-22T06:57:45.776Z,24.37
2018-04-22T07:00:13.545Z,23.70
2018-04-22T07:02:41.125Z,23.93
2018-04-22T07:05:09.588Z,23.57
2018-04-22T07:07:38.072Z,23.50
2018-04-22T07:10:06.957Z,25.67
2018-04-22T07:12:36.043Z,24.90
2018-04-22T07:15:03.518Z,25.47
2018-04-22T07:17:32.092Z,25.87
2018-04-22T07:19:59.857Z,26.20
2018-04-22T07:22:27.832Z,27.60
2018-04-22T07:24:56.316Z,25.07
2018-04-22T07:27:24.551Z,27.10
2018-04-22T07:29:52.185Z,24.50
2018-04-22T07:32:19.668Z,23.93
2018-04-22T07:34:47.147Z,25.87
2018-04-22T07:37:15.855Z,24.47
2018-04-22T07:39:44.127Z,24.37
2018-04-22T07:42:11.689Z,23.50
2018-04-22T07:44:40.013Z,23.07
2018-04-22T07:47:07.693Z,22.47
2018-04-22T07:49:35.186Z,23.67
2018-04-22T07:52:03.968Z,22.73
2018-04-22T07:54:31.437Z,22.90
2018-04-22T07:56:59.672Z,24.27
2018-04-22T07:59:27.984Z,23.17
2018-04-22T08:01:56.221Z,22.47
2018-04-22T08:04:23.696Z,23.00
2018-04-22T08:06:51.481Z,22.07
2018-04-22T08:09:19.860Z,20.63
2018-04-22T08:11:47.624Z,19.27
2018-04-22T08:14:15.596Z,17.87
2018-04-22T08:16:43.837Z,19.80
2018-04-22T08:19:11.307Z,17.57
2018-04-22T08:21:39.088Z,16.80
2018-04-22T08:24:06.659Z,17.13
2018-04-22T08:26:35.548Z,14.37
2018-04-22T08:29:03.821Z,13.53
2018-04-22T08:31:31.589Z,13.77
2018-04-22T08:34:00.273Z,13.10
2018-04-22T08:36:28.547Z,15.20
2018-04-22T08:38:56.018Z,12.40
2018-04-22T08:41:24.385Z,14.50
2018-04-22T08:43:52.143Z,14.13
2018-04-22T08:46:19.810Z,14.10
2018-04-22T08:48:47.511Z,13.87
2018-04-22T08:51:15.336Z,15.93
2018-04-22T08:53:43.104Z,11.87
2018-04-22T08:56:11.509Z,11.80
2018-04-22T08:58:39.125Z,13.67
2018-04-22T09:01:06.703Z,12.10
2018-04-22T09:03:34.358Z,12.33
2018-04-22T09:06:01.923Z,13.13
2018-04-22T09:08:29.451Z,11.50
2018-04-22T09:10:57.220Z,12.40
2018-04-22T09:13:24.810Z,15.10
2018-04-22T09:15:53.541Z,12.70
2018-04-22T09:18:21.048Z,11.03
2018-04-22T09:20:48.567Z,13.20
2018-04-22T09:23:16.081Z,11.80
2018-04-22T09:25:44.444Z,11.30
2018-04-22T09:28:12.519Z,12.03
2018-04-22T09:30:40.891Z,11.73
2018-04-22T09:33:08.495Z,10.43
2018-04-22T09:35:36.015Z,12.87
2018-04-22T09:38:04.294Z,12.60
2018-04-22T09:40:31.848Z,11.30
2018-04-22T09:42:59.322Z,11.07
2018-04-22T09:45:27.993Z,11.07
2018-04-22T09:47:55.756Z,9.93
2018-04-22T09:50:23.622Z,10.63
2018-04-22T09:52:51.388Z,10.20
2018-04-22T09:55:19.154Z,8.67
2018-04-22T09:57:47.515Z,10.20
2018-04-22T10:00:20.667Z,9.10
2018-04-22T10:02:48.237Z,9.00
2018-04-22T10:05:15.712Z,7.90
2018-04-22T10:07:43.292Z,8.83
2018-04-22T10:10:10.861Z,8.80
2018-04-22T10:12:39.533Z,8.70
2018-04-22T10:15:07.135Z,8.27
2018-04-22T10:17:34.930Z,7.77
2018-04-22T10:20:02.432Z,7.57
2018-04-22T10:22:29.973Z,6.97
2018-04-22T10:24:57.440Z,7.07
2018-04-22T10:27:24.905Z,7.17
2018-04-22T10:29:52.673Z,5.77
2018-04-22T10:32:20.940Z,6.33
2018-04-22T10:34:48.596Z,6.50
2018-04-22T10:37:16.569Z,5.80
2018-04-22T10:39:44.116Z,6.10
2018-04-22T10:42:11.575Z,5.50
2018-04-22T10:44:39.114Z,5.27
2018-04-22T10:47:06.576Z,5.57
2018-04-22T10:49:34.068Z,4.50
2018-04-22T10:52:01.925Z,4.30
2018-04-22T10:54:29.692Z,3.77
2018-04-22T10:56:57.252Z,3.87
2018-04-22T10:59:24.812Z,3.53
2018-04-22T11:01:52.324Z,4.10
2018-04-22T11:04:19.796Z,3.97
2018-04-22T11:06:48.112Z,3.40
2018-04-22T11:09:15.971Z,3.90
2018-04-22T11:11:43.862Z,3.10
2018-04-22T11:14:12.116Z,2.93
2018-04-22T11:16:39.639Z,3.77
2018-04-22T11:19:07.944Z,3.63
2018-04-22T11:21:35.511Z,3.03
2018-04-22T11:24:03.173Z,2.70
2018-04-22T11:26:30.828Z,3.20
2018-04-22T11:28:58.700Z,2.70
2018-04-22T11:31:26.464Z,3.50
2018-04-22T11:33:54.429Z,3.00
2018-04-22T11:36:22.213Z,2.30
2018-04-22T11:38:50.481Z,2.55
2018-04-22T11:41:19.360Z,2.33
2018-04-22T11:43:46.827Z,2.33
2018-04-22T11:46:14.288Z,2.43
2018-04-22T11:48:41.840Z,2.50
2018-04-22T11:51:09.324Z,2.50
2018-04-22T11:53:37.809Z,2.60
2018-04-22T11:56:06.164Z,2.30
2018-04-22T11:58:33.733Z,2.70
2018-04-22T12:01:01.964Z,2.20
2018-04-22T12:03:29.868Z,2.70
2018-04-22T12:05:57.323Z,2.67
2018-04-22T12:08:25.605Z,2.70
2018-04-22T12:10:54.085Z,2.63
2018-04-22T12:13:21.640Z,2.30
2018-04-22T12:15:49.192Z,2.80
2018-04-22T12:18:17.164Z,2.37
2018-04-22T12:20:44.735Z,2.40
2018-04-22T12:23:12.964Z,2.43
2018-04-22T12:25:40.468Z,2.70
2018-04-22T12:28:08.700Z,2.73
2018-04-22T12:30:36.173Z,2.60
2018-04-22T12:33:03.852Z,2.53
2018-04-22T12:35:31.316Z,2.63
2018-04-22T12:37:59.553Z,2.70
2018-04-22T12:40:27.144Z,2.90
2018-04-22T12:42:54.625Z,3.20
2018-04-22T12:45:22.880Z,2.80
2018-04-22T12:47:50.438Z,3.07
2018-04-22T12:50:18.724Z,3.10
2018-04-22T12:52:46.993Z,3.10
2018-04-22T12:55:14.961Z,2.97
2018-04-22T12:57:42.428Z,3.23
2018-04-22T13:00:10.661Z,3.27
2018-04-22T13:02:38.305Z,3.20
2018-04-22T13:05:05.771Z,3.40
2018-04-22T13:07:33.268Z,3.13
2018-04-22T13:10:00.931Z,3.47
2018-04-22T13:12:28.703Z,3.67
2018-04-22T13:14:57.179Z,3.20
2018-04-22T13:17:25.728Z,3.43
2018-04-22T13:19:53.416Z,3.27
2018-04-22T13:22:21.276Z,3.37
2018-04-22T13:24:49.047Z,3.20
2018-04-22T13:27:16.512Z,3.80
2018-04-22T13:29:44.793Z,3.57
2018-04-22T13:32:13.360Z,3.53
2018-04-22T13:34:41.024Z,3.53
2018-04-22T13:37:08.921Z,3.53
2018-04-22T13:39:37.272Z,3.37
2018-04-22T13:42:04.825Z,4.37
2018-04-22T13:44:32.592Z,3.70
2018-04-22T13:47:00.069Z,3.77
2018-04-22T13:49:28.319Z,3.70
2018-04-22T13:51:55.993Z,3.17
2018-04-22T13:54:24.405Z,3.70
2018-04-22T13:56:52.436Z,3.50
2018-04-22T13:59:20.197Z,3.10
2018-04-22T14:01:49.161Z,2.90
2018-04-22T14:04:16.632Z,2.60
2018-04-22T14:06:44.321Z,2.77
2018-04-22T14:09:12.557Z,3.10
2018-04-22T14:11:40.021Z,3.17
2018-04-22T14:14:07.808Z,3.13
2018-04-22T14:16:35.368Z,3.33
2018-04-22T14:19:03.030Z,3.17
2018-04-22T14:21:30.901Z,3.00
2018-04-22T14:23:58.664Z,3.20
2018-04-22T14:26:26.435Z,2.87
2018-04-22T14:28:54.899Z,3.00
2018-04-22T14:31:22.359Z,3.13
2018-04-22T14:33:49.828Z,3.07
2018-04-22T14:36:17.516Z,2.80
2018-04-22T14:38:45.255Z,3.40
2018-04-22T14:41:13.056Z,3.37
2018-04-22T14:43:47.334Z,3.00
2018-04-22T14:46:15.252Z,2.90
2018-04-22T14:48:54.748Z,3.00
2018-04-22T14:51:23.396Z,3.00
2018-04-22T14:53:50.896Z,3.00
2018-04-22T14:56:19.168Z,3.27
2018-04-22T14:58:47.953Z,3.33
2018-04-22T15:01:15.416Z,2.90
2018-04-22T15:03:43.681Z,3.23
2018-04-22T15:06:11.543Z,2.57
2018-04-22T15:08:39.093Z,2.60
2018-04-22T15:11:06.668Z,2.70
2018-04-22T15:13:34.537Z,3.20
2018-04-22T15:16:02.118Z,3.17
2018-04-22T15:18:30.576Z,2.77
2018-04-22T15:20:58.748Z,3.20
2018-04-22T15:23:26.417Z,2.77
2018-04-22T15:25:54.652Z,3.50
2018-04-22T15:28:22.322Z,2.70
2018-04-22T15:30:49.828Z,3.10
2018-04-22T15:33:18.188Z,2.67
2018-04-22T15:35:45.952Z,2.77
2018-04-22T15:38:13.513Z,3.03
2018-04-22T15:40:41.047Z,2.97
2018-04-22T15:43:08.513Z,2.57
2018-04-22T15:45:35.976Z,2.80
2018-04-22T15:48:03.752Z,3.10
2018-04-22T15:50:31.323Z,3.20
2018-04-22T15:52:59.584Z,2.80
2018-04-22T15:55:27.553Z,3.10
2018-04-22T15:57:55.208Z,3.07
2018-04-22T16:00:22.772Z,2.80
2018-04-22T16:02:50.433Z,2.70
2018-04-22T16:05:18.099Z,3.10
2018-04-22T16:07:45.568Z,3.10
2018-04-22T16:10:13.924Z,3.33
2018-04-22T16:12:43.640Z,2.90
2018-04-22T16:15:11.100Z,3.03
2018-04-22T16:17:39.879Z,3.30
2018-04-22T16:20:07.548Z,2.87
2018-04-22T16:22:36.511Z,3.20
2018-04-22T16:25:03.977Z,3.80
2018-04-22T16:27:31.456Z,3.07
2018-04-22T16:29:58.996Z,3.60
2018-04-22T16:32:26.572Z,3.40
2018-04-22T16:34:54.961Z,3.87
2018-04-22T16:37:23.644Z,3.40
2018-04-22T16:39:51.296Z,3.50
2018-04-22T16:42:18.856Z,3.73
2018-04-22T16:44:46.828Z,3.57
2018-04-22T16:47:14.303Z,3.70
2018-04-22T16:49:42.536Z,3.40
2018-04-22T16:52:10.061Z,3.17
2018-04-22T16:54:37.528Z,3.40
2018-04-22T16:57:05.240Z,3.80
2018-04-22T16:59:32.709Z,3.30
2018-04-22T17:02:00.981Z,3.70
2018-04-22T17:04:28.733Z,3.80
2018-04-22T17:06:56.192Z,3.27
2018-04-22T17:09:23.657Z,19.97
2018-04-22T17:11:52.134Z,57.50
2018-04-22T17:14:20.444Z,3.90
2018-04-22T17:16:47.972Z,17.33
2018-04-22T17:19:15.836Z,5.23
2018-04-22T17:21:43.396Z,18.60
2018-04-22T17:24:11.227Z,10.70
2018-04-22T17:26:39.412Z,19.90
2018-04-22T17:29:06.889Z,13.03
2018-04-22T17:31:34.657Z,5.50
2018-04-22T17:34:02.234Z,5.50
2018-04-22T17:36:30.459Z,3.30
2018-04-22T17:38:58.252Z,4.13
2018-04-22T17:41:25.817Z,5.03
2018-04-22T17:43:53.296Z,4.40
2018-04-22T17:46:21.888Z,3.23
2018-04-22T17:48:49.352Z,7.33
2018-04-22T17:51:16.829Z,5.00
2018-04-22T17:53:44.390Z,3.40
2018-04-22T17:56:11.997Z,3.13
2018-04-22T17:58:40.277Z,3.53
2018-04-22T18:01:07.829Z,3.17
2018-04-22T18:03:35.693Z,3.67
2018-04-22T18:06:03.252Z,3.73
2018-04-22T18:08:30.721Z,3.20
2018-04-22T18:10:59.125Z,4.00
2018-04-22T18:13:26.654Z,3.53
2018-04-22T18:15:54.972Z,3.90
2018-04-22T18:18:22.884Z,4.10
2018-04-22T18:20:50.881Z,4.70
2018-04-22T18:23:19.848Z,3.73
2018-04-22T18:25:47.613Z,3.70
2018-04-22T18:28:15.178Z,3.53
2018-04-22T18:30:42.654Z,3.60
2018-04-22T18:33:11.065Z,3.63
2018-04-22T18:35:38.620Z,3.70
2018-04-22T18:38:06.179Z,3.90
2018-04-22T18:40:34.004Z,3.43
2018-04-22T18:43:01.677Z,3.70
2018-04-22T18:45:29.937Z,3.53
2018-04-22T18:47:58.528Z,3.87
2018-04-22T18:50:26.002Z,3.50
2018-04-22T18:52:54.252Z,3.60
2018-04-22T18:55:21.843Z,3.93
2018-04-22T18:57:49.339Z,4.00
2018-04-22T19:00:16.836Z,4.10
2018-04-22T19:02:44.901Z,3.70
2018-04-22T19:05:12.564Z,4.10
2018-04-22T19:07:40.176Z,3.90
2018-04-22T19:10:07.886Z,4.10
2018-04-22T19:12:35.609Z,4.03
2018-04-22T19:15:03.117Z,3.77
2018-04-22T19:17:30.871Z,3.87
2018-04-22T19:19:59.768Z,4.07
2018-04-22T19:22:27.330Z,4.27
2018-04-22T19:24:55.732Z,4.10
2018-04-22T19:27:24.036Z,4.03
2018-04-22T19:29:51.507Z,4.17
2018-04-22T19:32:19.057Z,4.27
2018-04-22T19:34:46.815Z,4.23
2018-04-22T19:37:15.252Z,5.20
2018-04-22T19:39:42.867Z,6.30
2018-04-22T19:42:10.424Z,5.50
2018-04-22T19:44:38.344Z,5.33
2018-04-22T19:47:06.110Z,4.37
2018-04-22T19:49:33.680Z,4.60
2018-04-22T19:52:02.152Z,4.40
2018-04-22T19:54:29.724Z,4.40
2018-04-22T19:56:57.376Z,4.53
2018-04-22T19:59:24.941Z,4.47
2018-04-22T20:01:53.011Z,4.37
2018-04-22T20:04:20.573Z,4.47
2018-04-22T20:06:48.436Z,4.30
2018-04-22T20:09:16.199Z,4.40
2018-04-22T20:11:43.711Z,6.77
2018-04-22T20:14:11.229Z,65.63
2018-04-22T20:16:38.992Z,28.33
2018-04-22T20:19:07.095Z,16.00
2018-04-22T20:21:34.632Z,12.43
2018-04-22T20:24:02.948Z,8.07
2018-04-22T20:26:30.569Z,10.27
2018-04-22T20:28:58.179Z,6.67
2018-04-22T20:31:25.884Z,6.13
2018-04-22T20:33:53.483Z,5.10
2018-04-22T20:36:21.241Z,5.07
2018-04-22T20:38:49.617Z,7.57
2018-04-22T20:41:17.985Z,7.47
2018-04-22T20:43:46.564Z,5.70
2018-04-22T20:46:14.323Z,5.10
2018-04-22T20:48:43.425Z,5.87
2018-04-22T20:51:11.292Z,5.47
2018-04-22T20:53:38.855Z,5.00
2018-04-22T20:56:06.417Z,5.70
2018-04-22T20:58:34.177Z,4.70
2018-04-22T21:01:01.646Z,4.90
2018-04-22T21:03:30.295Z,5.33
2018-04-22T21:05:58.708Z,5.47
2018-04-22T21:08:26.276Z,5.07
2018-04-22T21:10:54.038Z,4.77
2018-04-22T21:13:22.620Z,4.70
2018-04-22T21:15:51.415Z,5.80
2018-04-22T21:18:19.072Z,4.63
2018-04-22T21:20:46.647Z,11.87
2018-04-22T21:23:14.537Z,6.37
2018-04-22T21:25:42.793Z,5.40
2018-04-22T21:28:11.059Z,6.30
2018-04-22T21:30:40.360Z,6.00
2018-04-22T21:33:07.924Z,7.70
2018-04-22T21:35:35.492Z,6.73
2018-04-22T21:38:04.080Z,6.47
2018-04-22T21:40:33.013Z,5.70
2018-04-22T21:43:00.725Z,5.67
2018-04-22T21:45:28.495Z,5.53
2018-04-22T21:47:56.068Z,5.10
2018-04-22T21:50:24.741Z,5.37
2018-04-22T21:52:53.121Z,6.13
2018-04-22T21:55:20.880Z,6.00
2018-04-22T21:57:50.186Z,5.00
2018-04-22T22:00:17.960Z,4.77
2018-04-22T22:02:46.229Z,5.13
2018-04-22T22:05:13.988Z,4.53
2018-04-22T22:07:41.658Z,5.73
2018-04-22T22:10:10.028Z,5.53
2018-04-22T22:12:37.492Z,5.37
2018-04-22T22:15:05.128Z,5.60
2018-04-22T22:17:32.717Z,5.60
2018-04-22T22:20:00.340Z,5.77
2018-04-22T22:22:27.808Z,5.80
2018-04-22T22:24:55.377Z,5.40
2018-04-22T22:27:23.160Z,5.40
2018-04-22T22:29:50.820Z,5.93
2018-04-22T22:32:18.379Z,5.90
2018-04-22T22:34:46.143Z,5.43
2018-04-22T22:37:14.499Z,6.20
2018-04-22T22:39:42.424Z,6.70
2018-04-22T22:42:10.056Z,6.43
2018-04-22T22:44:37.820Z,6.07
2018-04-22T22:47:05.480Z,6.20
2018-04-22T22:49:33.148Z,6.10
2018-04-22T22:52:00.889Z,5.80
2018-04-22T22:54:28.577Z,6.30
2018-04-22T22:56:56.647Z,5.83
2018-04-22T22:59:24.304Z,7.00
2018-04-22T23:01:51.969Z,7.47
2018-04-22T23:04:19.741Z,7.10
2018-04-22T23:06:48.212Z,7.03
2018-04-22T23:09:15.757Z,7.20
2018-04-22T23:11:43.848Z,6.60
2018-04-22T23:14:11.316Z,6.23
2018-04-22T23:16:39.890Z,6.87
2018-04-22T23:19:07.656Z,7.00
2018-04-22T23:21:35.420Z,7.23
2018-04-22T23:24:02.985Z,6.93
2018-04-22T23:26:30.753Z,6.90
2018-04-22T23:28:59.029Z,6.90
2018-04-22T23:31:27.344Z,7.40
2018-04-22T23:33:55.272Z,7.33
2018-04-22T23:36:23.652Z,7.00
2018-04-22T23:38:51.629Z,8.07
2018-04-22T23:41:20.027Z,7.10
2018-04-22T23:43:49.019Z,7.30
2018-04-22T23:46:17.241Z,7.70
2018-04-22T23:48:45.140Z,7.47
2018-04-22T23:51:12.717Z,7.90
2018-04-22T23:53:41.184Z,7.57
2018-04-22T23:56:08.744Z,7.50
2018-04-22T23:58:36.507Z,7.20
